createdAt,value
2023-03-26T00:01:02.069Z,100756.81
2023-03-26T00:03:30.015Z,100751.63
2023-03-26T00:06:07.516Z,100748.94
2023-03-26T00:08:35.826Z,100753.28
2023-03-26T00:11:04.793Z,100756.81
2023-03-26T00:13:32.172Z,100749.06
2023-03-26T00:15:59.735Z,100750.00
2023-03-26T00:18:30.904Z,100748.31
2023-03-26T00:21:03.643Z,100754.44
2023-03-26T00:23:31.419Z,100743.19
2023-03-26T00:25:58.159Z,100749.22
2023-03-26T00:28:26.396Z,100736.16
2023-03-26T00:31:04.846Z,100736.16
2023-03-26T00:33:32.407Z,100744.09
2023-03-26T00:36:03.191Z,100738.13
2023-03-26T00:38:31.010Z,100729.56
2023-03-26T00:41:05.959Z,100725.28
2023-03-26T00:43:35.085Z,100721.97
2023-03-26T00:46:06.369Z,100724.72
2023-03-26T00:48:44.362Z,100709.34
2023-03-26T00:51:15.550Z,100722.41
2023-03-26T00:53:44.238Z,100715.47
2023-03-26T00:56:11.953Z,100709.41
2023-03-26T00:58:38.961Z,100702.47
2023-03-26T01:01:08.653Z,100703.38
2023-03-26T01:03:38.423Z,100706.75
2023-03-26T01:06:08.034Z,100708.53
2023-03-26T01:08:38.361Z,100706.66
2023-03-26T01:11:14.178Z,100698.97
2023-03-26T01:13:50.603Z,100695.53
2023-03-26T01:16:24.070Z,100697.28
2023-03-26T01:18:52.664Z,100698.19
2023-03-26T01:21:23.382Z,100689.53
2023-03-26T01:24:16.224Z,100671.44
2023-03-26T01:27:04.376Z,100665.44
2023-03-26T01:29:43.056Z,100661.19
2023-03-26T01:32:37.667Z,100650.00
2023-03-26T01:35:19.597Z,100655.28
2023-03-26T01:37:52.428Z,100657.81
2023-03-26T01:40:31.762Z,100652.47
2023-03-26T01:43:17.898Z,100648.94
2023-03-26T01:45:47.751Z,100642.00
2023-03-26T01:48:14.540Z,100639.41
2023-03-26T01:50:41.204Z,100647.25
2023-03-26T01:53:09.541Z,100640.38
2023-03-26T01:56:06.207Z,100635.34
2023-03-26T01:58:55.686Z,100625.84
2023-03-26T02:01:30.295Z,100619.75
2023-03-26T02:04:22.432Z,100626.75
2023-03-26T02:07:13.436Z,100624.09
2023-03-26T02:09:47.170Z,100612.09
2023-03-26T02:12:14.923Z,100603.44
2023-03-26T02:14:42.884Z,100605.22
2023-03-26T02:17:10.865Z,100598.31
2023-03-26T02:19:41.902Z,100601.84
2023-03-26T02:22:11.332Z,100599.47
2023-03-26T02:24:41.619Z,100599.47
2023-03-26T02:27:08.703Z,100591.75
2023-03-26T02:29:39.761Z,100582.97
2023-03-26T02:32:15.106Z,100586.47
2023-03-26T02:34:42.390Z,100586.38
2023-03-26T02:37:10.007Z,100583.63
2023-03-26T02:39:36.664Z,100579.97
2023-03-26T02:42:03.275Z,100580.91
2023-03-26T02:44:29.804Z,100568.66
2023-03-26T02:46:56.313Z,100569.66
2023-03-26T02:49:22.781Z,100579.06
2023-03-26T02:51:49.192Z,100565.97
2023-03-26T02:54:16.742Z,100569.34
2023-03-26T02:56:43.385Z,100567.44
2023-03-26T02:59:10.745Z,100571.56
2023-03-26T03:01:42.672Z,100567.97
2023-03-26T03:04:10.578Z,100562.69
2023-03-26T03:06:38.355Z,100562.53
2023-03-26T03:09:06.118Z,100560.03
2023-03-26T03:11:32.532Z,100559.94
2023-03-26T03:13:58.949Z,100548.53
2023-03-26T03:16:25.905Z,100559.63
2023-03-26T03:18:58.036Z,100551.66
2023-03-26T03:21:27.262Z,100547.03
2023-03-26T03:24:00.043Z,100542.16
2023-03-26T03:26:27.862Z,100539.28
2023-03-26T03:28:57.529Z,100539.97
2023-03-26T03:31:26.430Z,100537.13
2023-03-26T03:33:53.247Z,100527.56
2023-03-26T03:36:24.285Z,100528.25
2023-03-26T03:38:51.203Z,100520.44
2023-03-26T03:41:18.563Z,100526.47
2023-03-26T03:43:45.615Z,100529.91
2023-03-26T03:46:12.121Z,100534.19
2023-03-26T03:48:39.411Z,100529.81
2023-03-26T03:51:06.883Z,100529.81
2023-03-26T03:53:37.258Z,100529.81
2023-03-26T03:56:04.797Z,100534.19
2023-03-26T03:58:31.325Z,100532.34
2023-03-26T04:01:04.647Z,100524.63
2023-03-26T04:03:33.442Z,100518.50
2023-03-26T04:06:01.395Z,100519.34
2023-03-26T04:08:27.947Z,100514.97
2023-03-26T04:10:54.346Z,100515.91
2023-03-26T04:13:21.310Z,100509.00
2023-03-26T04:15:47.772Z,100505.50
2023-03-26T04:18:14.376Z,100501.13
2023-03-26T04:20:46.782Z,100493.22
2023-03-26T04:23:14.174Z,100491.56
2023-03-26T04:25:49.746Z,100494.25
2023-03-26T04:28:27.549Z,100489.91
2023-03-26T04:30:57.094Z,100485.53
2023-03-26T04:33:24.927Z,100484.69
2023-03-26T04:35:52.506Z,100476.88
2023-03-26T04:38:19.591Z,100470.84
2023-03-26T04:40:49.005Z,100475.94
2023-03-26T04:43:18.051Z,100465.53
2023-03-26T04:45:45.906Z,100465.53
2023-03-26T04:48:14.606Z,100458.56
2023-03-26T04:50:44.289Z,100455.13
2023-03-26T04:53:17.038Z,100449.00
2023-03-26T04:55:59.867Z,100450.75
2023-03-26T04:58:32.602Z,100445.66
2023-03-26T05:01:01.187Z,100441.34
2023-03-26T05:03:40.656Z,100439.63
2023-03-26T05:06:09.451Z,100425.84
2023-03-26T05:08:35.944Z,100428.44
2023-03-26T05:11:02.904Z,100418.13
2023-03-26T05:13:29.776Z,100421.56
2023-03-26T05:15:56.360Z,100425.06
2023-03-26T05:18:22.883Z,100413.84
2023-03-26T05:20:49.364Z,100419.88
2023-03-26T05:23:15.983Z,100416.38
2023-03-26T05:25:42.589Z,100414.59
2023-03-26T05:28:10.552Z,100406.78
2023-03-26T05:30:37.595Z,100405.03
2023-03-26T05:33:04.732Z,100404.94
2023-03-26T05:35:31.423Z,100400.59
2023-03-26T05:37:58.188Z,100398.72
2023-03-26T05:40:24.705Z,100397.06
2023-03-26T05:42:51.443Z,100396.97
2023-03-26T05:45:18.116Z,100394.44
2023-03-26T05:47:44.647Z,100390.09
2023-03-26T05:50:11.612Z,100390.91
2023-03-26T05:52:38.564Z,100393.53
2023-03-26T05:55:06.496Z,100383.94
2023-03-26T05:57:33.228Z,100379.59
2023-03-26T05:59:59.854Z,100374.41
2023-03-26T06:02:26.416Z,100376.06
2023-03-26T06:04:52.933Z,100379.50
2023-03-26T06:07:19.990Z,100369.88
2023-03-26T06:09:46.701Z,100365.50
2023-03-26T06:12:13.990Z,100360.19
2023-03-26T06:14:42.818Z,100354.81
2023-03-26T06:17:10.317Z,100355.56
2023-03-26T06:19:37.303Z,100353.72
2023-03-26T06:22:05.704Z,100353.63
2023-03-26T06:24:32.908Z,100348.31
2023-03-26T06:26:59.365Z,100347.31
2023-03-26T06:29:26.044Z,100340.34
2023-03-26T06:31:52.949Z,100347.22
2023-03-26T06:34:19.611Z,100339.16
2023-03-26T06:36:46.166Z,100339.72
2023-03-26T06:39:14.441Z,100345.78
2023-03-26T06:43:06.487Z,100333.50
2023-03-26T06:45:15.366Z,100336.22
2023-03-26T06:47:41.958Z,100339.53
2023-03-26T06:50:11.463Z,100333.44
2023-03-26T06:52:38.213Z,100331.75
2023-03-26T06:55:08.528Z,100335.84
2023-03-26T06:57:35.570Z,100329.72
2023-03-26T07:00:02.129Z,100327.94
2023-03-26T07:02:36.282Z,100337.44
2023-03-26T07:05:03.272Z,100335.75
2023-03-26T07:07:46.721Z,100335.00
2023-03-26T07:10:14.358Z,100340.13
2023-03-26T07:12:42.376Z,100332.31
2023-03-26T07:15:10.223Z,100332.97
2023-03-26T07:17:37.021Z,100331.97
2023-03-26T07:20:05.616Z,100325.91
2023-03-26T07:22:32.342Z,100334.66
2023-03-26T07:24:59.148Z,100329.25
2023-03-26T07:27:50.662Z,100333.47
2023-03-26T07:30:38.921Z,100330.50
2023-03-26T07:33:14.284Z,100329.47
2023-03-26T07:35:43.925Z,100318.13
2023-03-26T07:38:22.881Z,100317.97
2023-03-26T07:41:06.977Z,100323.06
2023-03-26T07:43:39.405Z,100314.31
2023-03-26T07:46:10.840Z,100318.59
2023-03-26T07:48:42.375Z,100315.72
2023-03-26T07:51:09.870Z,100317.38
2023-03-26T07:53:36.877Z,100314.72
2023-03-26T07:56:31.003Z,100312.19
2023-03-26T07:59:25.341Z,100319.09
2023-03-26T08:02:29.249Z,100313.75
2023-03-26T08:05:01.287Z,100309.97
2023-03-26T08:07:42.355Z,100312.28
2023-03-26T08:11:07.179Z,100306.06
2023-03-26T08:13:34.580Z,100313.69
2023-03-26T08:16:26.889Z,100306.06
2023-03-26T08:19:13.873Z,100316.28
2023-03-26T08:21:59.923Z,100304.38
2023-03-26T08:24:46.373Z,100305.47
2023-03-26T08:27:25.050Z,100305.59
2023-03-26T08:30:07.600Z,100309.03
2023-03-26T08:32:34.706Z,100308.94
2023-03-26T08:35:01.242Z,100315.00
2023-03-26T08:37:29.182Z,100303.09
2023-03-26T08:39:55.819Z,100306.41
2023-03-26T08:42:59.858Z,100309.03
2023-03-26T08:45:51.393Z,100309.97
2023-03-26T08:48:50.955Z,100305.78
2023-03-26T08:51:54.413Z,100309.50
2023-03-26T08:54:42.061Z,100309.50
2023-03-26T08:57:39.255Z,100304.47
2023-03-26T09:00:27.292Z,100312.56
2023-03-26T09:03:52.684Z,100314.69
2023-03-26T09:06:48.398Z,100307.78
2023-03-26T09:09:39.901Z,100322.69
2023-03-26T09:12:58.966Z,100310.84
2023-03-26T09:15:43.607Z,100315.31
2023-03-26T09:18:19.138Z,100313.63
2023-03-26T09:21:06.799Z,100313.81
2023-03-26T09:23:58.182Z,100314.00
2023-03-26T09:26:51.420Z,100309.63
2023-03-26T09:29:20.971Z,100318.28
2023-03-26T09:32:13.130Z,100315.59
2023-03-26T09:35:03.627Z,100313.75
2023-03-26T09:37:57.174Z,100318.31
2023-03-26T09:40:34.903Z,100313.94
2023-03-26T09:43:29.411Z,100315.88
2023-03-26T09:46:12.016Z,100332.28
2023-03-26T09:49:03.770Z,100322.03
2023-03-26T09:51:43.555Z,100326.38
2023-03-26T09:54:30.357Z,100332.63
2023-03-26T09:57:22.160Z,100324.53
2023-03-26T10:00:13.673Z,100329.84
2023-03-26T10:02:46.254Z,100335.13
2023-03-26T10:05:21.608Z,100338.00
2023-03-26T10:08:28.249Z,100342.47
2023-03-26T10:11:34.627Z,100346.94
2023-03-26T10:14:07.231Z,100342.56
2023-03-26T10:16:55.605Z,100342.28
2023-03-26T10:19:31.295Z,100344.41
2023-03-26T10:22:27.709Z,100347.00
2023-03-26T10:25:13.595Z,100348.78
2023-03-26T10:27:51.087Z,100349.44
2023-03-26T10:30:40.678Z,100350.19
2023-03-26T10:33:25.453Z,100359.69
2023-03-26T10:36:26.801Z,100362.00
2023-03-26T10:39:07.434Z,100354.19
2023-03-26T10:41:49.361Z,100351.75
2023-03-26T10:44:50.000Z,100360.50
2023-03-26T10:47:22.603Z,100362.84
2023-03-26T10:50:02.205Z,100361.94
2023-03-26T10:52:39.089Z,100363.53
2023-03-26T10:55:37.935Z,100361.00
2023-03-26T10:58:48.319Z,100371.69
2023-03-26T11:01:23.811Z,100373.63
2023-03-26T11:03:56.589Z,100372.28
2023-03-26T11:06:51.111Z,100377.41
2023-03-26T11:09:33.693Z,100376.47
2023-03-26T11:12:28.880Z,100372.38
2023-03-26T11:15:12.406Z,100381.50
2023-03-26T11:18:16.760Z,100383.19
2023-03-26T11:21:18.839Z,100386.72
2023-03-26T11:24:04.459Z,100387.31
2023-03-26T11:26:55.510Z,100382.66
2023-03-26T11:29:32.404Z,100397.75
2023-03-26T11:32:10.632Z,100392.19
2023-03-26T11:34:47.026Z,100397.22
2023-03-26T11:37:34.629Z,100406.44
2023-03-26T11:40:06.511Z,100395.34
2023-03-26T11:42:33.232Z,100407.06
2023-03-26T11:45:04.691Z,100410.03
2023-03-26T11:47:42.835Z,100411.47
2023-03-26T11:50:18.208Z,100404.22
2023-03-26T11:52:51.050Z,100412.19
2023-03-26T11:55:25.008Z,100410.50
2023-03-26T11:57:55.653Z,100414.81
2023-03-26T12:00:27.508Z,100412.19
2023-03-26T12:03:00.376Z,100418.81
2023-03-26T12:05:36.649Z,100421.81
2023-03-26T12:08:17.755Z,100420.53
2023-03-26T12:10:44.742Z,100421.03
2023-03-26T12:13:39.224Z,100415.47
2023-03-26T12:16:18.528Z,100416.97
2023-03-26T12:18:56.907Z,100420.22
2023-03-26T12:21:23.606Z,100419.03
2023-03-26T12:23:59.170Z,100425.38
2023-03-26T12:26:48.876Z,100429.13
2023-03-26T12:29:18.826Z,100432.19
2023-03-26T12:31:54.520Z,100436.19
2023-03-26T12:34:23.637Z,100430.25
2023-03-26T12:36:55.962Z,100438.72
2023-03-26T12:40:07.432Z,100440.31
2023-03-26T12:44:50.880Z,100439.88
2023-03-26T12:45:31.430Z,100441.81
2023-03-26T12:48:03.565Z,100445.44
2023-03-26T12:50:43.869Z,100451.69
2023-03-26T12:53:48.307Z,100447.16
2023-03-26T12:56:42.915Z,100449.66
2023-03-26T12:59:09.452Z,100459.25
2023-03-26T13:02:07.018Z,100452.16
2023-03-26T13:04:37.456Z,100455.78
2023-03-26T13:07:19.565Z,100464.91
2023-03-26T13:10:20.985Z,100458.78
2023-03-26T13:13:00.845Z,100475.34
2023-03-26T13:15:43.329Z,100462.50
2023-03-26T13:18:22.038Z,100467.31
2023-03-26T13:21:28.604Z,100468.84
2023-03-26T13:24:28.899Z,100470.50
2023-03-26T13:27:07.312Z,100492.50
2023-03-26T13:30:07.425Z,100485.69
2023-03-26T13:33:11.581Z,100485.50
2023-03-26T13:35:41.169Z,100495.69
2023-03-26T13:38:20.288Z,100491.22
2023-03-26T13:41:08.069Z,100487.38
2023-03-26T13:43:56.660Z,100488.78
2023-03-26T13:46:38.500Z,100499.28
2023-03-26T13:49:08.095Z,100496.56
2023-03-26T13:51:49.829Z,100495.63
2023-03-26T13:54:26.892Z,100499.13
2023-03-26T13:57:16.202Z,100497.16
2023-03-26T13:59:53.768Z,100500.94
2023-03-26T14:02:31.069Z,100499.06
2023-03-26T14:05:06.664Z,100499.75
2023-03-26T14:07:41.284Z,100510.47
2023-03-26T14:10:21.848Z,100513.19
2023-03-26T14:13:20.861Z,100502.16
2023-03-26T14:15:56.067Z,100526.78
2023-03-26T14:18:33.660Z,100539.75
2023-03-26T14:21:00.169Z,100539.38
2023-03-26T14:24:04.659Z,100540.97
2023-03-26T14:27:03.353Z,100537.44
2023-03-26T14:29:58.294Z,100547.03
2023-03-26T14:32:36.742Z,100541.13
2023-03-26T14:35:30.734Z,100546.25
2023-03-26T14:38:12.051Z,100545.78
2023-03-26T14:41:17.436Z,100561.63
2023-03-26T14:43:46.845Z,100573.19
2023-03-26T14:46:37.109Z,100565.53
2023-03-26T14:49:43.943Z,100579.88
2023-03-26T14:52:45.594Z,100592.38
2023-03-26T14:55:27.406Z,100592.06
2023-03-26T14:58:37.047Z,100592.91
2023-03-26T15:01:22.853Z,100601.84
2023-03-26T15:04:27.503Z,100609.22
2023-03-26T15:07:02.904Z,100611.28
2023-03-26T15:09:51.552Z,100605.88
2023-03-26T15:12:36.091Z,100621.53
2023-03-26T15:15:35.129Z,100611.00
2023-03-26T15:18:39.305Z,100613.97
2023-03-26T15:21:44.386Z,100622.81
2023-03-26T15:24:31.480Z,100628.75
2023-03-26T15:27:16.263Z,100633.06
2023-03-26T15:29:42.901Z,100639.03
2023-03-26T15:32:40.794Z,100638.94
2023-03-26T15:35:25.821Z,100640.53
2023-03-26T15:38:13.858Z,100650.56
2023-03-26T15:41:00.596Z,100654.28
2023-03-26T15:44:22.302Z,100660.75
2023-03-26T15:46:56.791Z,100668.47
2023-03-26T15:49:50.156Z,100671.25
2023-03-26T15:53:01.659Z,100691.72
2023-03-26T15:55:43.588Z,100686.91
2023-03-26T15:58:21.431Z,100687.66
2023-03-26T16:00:57.201Z,100693.81
2023-03-26T16:03:56.414Z,100710.63
2023-03-26T16:06:51.863Z,100711.03
2023-03-26T16:09:31.156Z,100724.22
2023-03-26T16:12:00.391Z,100728.00
2023-03-26T16:14:36.365Z,100726.47
2023-03-26T16:17:06.629Z,100732.94
2023-03-26T16:19:48.932Z,100730.34
2023-03-26T16:22:42.661Z,100745.13
2023-03-26T16:25:32.609Z,100747.72
2023-03-26T16:28:21.271Z,100748.72
2023-03-26T16:31:23.362Z,100755.34
2023-03-26T16:34:20.482Z,100766.75
2023-03-26T16:36:51.479Z,100772.13
2023-03-26T16:39:23.118Z,100768.75
2023-03-26T16:42:06.581Z,100780.06
2023-03-26T16:45:00.181Z,100795.03
2023-03-26T16:47:43.038Z,100800.31
2023-03-26T16:50:39.107Z,100800.47
2023-03-26T16:53:29.792Z,100810.25
2023-03-26T16:56:02.837Z,100812.97
2023-03-26T16:59:00.499Z,100814.72
2023-03-26T17:02:18.341Z,100843.34
2023-03-26T17:04:48.782Z,100848.03
2023-03-26T17:07:29.346Z,100846.56
2023-03-26T17:10:18.934Z,100860.63
2023-03-26T17:12:57.950Z,100847.13
2023-03-26T17:15:34.654Z,100862.00
2023-03-26T17:18:21.487Z,100864.91
2023-03-26T17:21:10.037Z,100869.47
2023-03-26T17:24:15.694Z,100880.25
2023-03-26T17:27:24.190Z,100884.75
2023-03-26T17:30:05.634Z,100895.16
2023-03-26T17:33:00.752Z,100899.50
2023-03-26T17:35:39.568Z,100904.16
2023-03-26T17:38:18.346Z,100919.06
2023-03-26T17:40:52.994Z,100927.91
2023-03-26T17:43:41.705Z,100934.94
2023-03-26T17:46:25.690Z,100931.41
2023-03-26T17:48:58.337Z,100937.75
2023-03-26T17:51:58.105Z,100935.28
2023-03-26T17:54:32.790Z,100943.28
2023-03-26T17:57:25.291Z,100949.50
2023-03-26T17:59:59.748Z,100954.09
2023-03-26T18:02:42.155Z,100954.28
2023-03-26T18:05:12.635Z,100965.75
2023-03-26T18:07:54.334Z,100965.88
2023-03-26T18:10:53.684Z,100972.38
2023-03-26T18:13:48.479Z,100983.44
2023-03-26T18:16:18.170Z,100993.97
2023-03-26T18:18:54.715Z,100994.97
2023-03-26T18:21:27.805Z,101002.78
2023-03-26T18:23:59.556Z,100993.25
2023-03-26T18:26:36.184Z,101000.97
2023-03-26T18:29:20.470Z,101013.03
2023-03-26T18:31:53.299Z,101015.50
2023-03-26T18:34:20.750Z,101021.38
2023-03-26T18:37:01.209Z,101031.06
2023-03-26T18:39:28.201Z,101038.06
2023-03-26T18:41:54.858Z,101043.13
2023-03-26T18:44:21.870Z,101049.16
2023-03-26T18:46:48.490Z,101059.56
2023-03-26T18:49:17.016Z,101061.31
2023-03-26T18:51:56.166Z,101071.91
2023-03-26T18:54:29.053Z,101080.72
2023-03-26T18:56:55.565Z,101084.56
2023-03-26T18:59:31.913Z,101094.19
2023-03-26T19:02:10.324Z,101101.38
2023-03-26T19:04:38.125Z,101102.25
2023-03-26T19:07:13.646Z,101106.06
2023-03-26T19:09:42.310Z,101107.97
2023-03-26T19:12:33.177Z,101115.16
2023-03-26T19:15:07.875Z,101117.03
2023-03-26T19:17:46.737Z,101122.06
2023-03-26T19:20:19.497Z,101129.78
2023-03-26T19:22:47.704Z,101126.28
2023-03-26T19:25:22.611Z,101133.22
2023-03-26T19:27:50.787Z,101136.91
2023-03-26T19:30:31.103Z,101143.91
2023-03-26T19:33:12.998Z,101146.72
2023-03-26T19:35:42.255Z,101144.47
2023-03-26T19:38:25.558Z,101161.06
2023-03-26T19:40:54.985Z,101171.53
2023-03-26T19:43:22.330Z,101168.28
2023-03-26T19:46:00.581Z,101184.63
2023-03-26T19:48:46.093Z,101182.94
2023-03-26T19:51:19.960Z,101192.59
2023-03-26T19:53:53.834Z,101186.59
2023-03-26T19:56:22.000Z,101191.03
2023-03-26T19:58:50.137Z,101193.84
2023-03-26T20:01:26.779Z,101197.44
2023-03-26T20:04:00.274Z,101200.88
2023-03-26T20:06:42.285Z,101204.28
2023-03-26T20:09:11.497Z,101209.53
2023-03-26T20:11:39.528Z,101220.03
2023-03-26T20:14:24.151Z,101222.75
2023-03-26T20:16:50.851Z,101224.50
2023-03-26T20:19:17.756Z,101230.50
2023-03-26T20:21:45.904Z,101239.97
2023-03-26T20:24:16.435Z,101238.19
2023-03-26T20:26:45.149Z,101247.69
2023-03-26T20:29:13.406Z,101241.66
2023-03-26T20:31:44.048Z,101247.84
2023-03-26T20:34:20.081Z,101246.31
2023-03-26T20:36:47.293Z,101255.75
2023-03-26T20:39:14.429Z,101259.34
2023-03-26T20:41:45.502Z,101264.53
2023-03-26T20:44:15.360Z,101268.97
2023-03-26T20:46:43.324Z,101274.34
2023-03-26T20:49:10.818Z,101279.78
2023-03-26T20:51:38.370Z,101285.91
2023-03-26T20:54:23.239Z,101293.94
2023-03-26T20:56:50.815Z,101300.97
2023-03-26T20:59:21.686Z,101306.16
2023-03-26T21:01:49.908Z,101302.75
2023-03-26T21:04:17.488Z,101304.66
2023-03-26T21:06:44.302Z,101310.72
2023-03-26T21:09:17.715Z,101314.31
2023-03-26T21:11:44.388Z,101309.19
2023-03-26T21:14:27.668Z,101313.81
2023-03-26T21:16:54.523Z,101318.31
2023-03-26T21:19:21.406Z,101317.63
2023-03-26T21:22:07.289Z,101322.06
2023-03-26T21:24:45.876Z,101331.00
2023-03-26T21:27:19.432Z,101331.00
2023-03-26T21:29:46.673Z,101336.19
2023-03-26T21:32:14.353Z,101336.38
2023-03-26T21:34:47.888Z,101340.00
2023-03-26T21:37:22.844Z,101340.94
2023-03-26T21:39:49.608Z,101340.91
2023-03-26T21:42:16.524Z,101347.09
2023-03-26T21:44:44.090Z,101358.38
2023-03-26T21:47:11.244Z,101367.97
2023-03-26T21:49:38.593Z,101368.97
2023-03-26T21:52:06.190Z,101381.91
2023-03-26T21:54:33.445Z,101382.00
2023-03-26T21:57:06.280Z,101385.41
2023-03-26T21:59:48.222Z,101383.53
2023-03-26T22:02:34.083Z,101392.88
2023-03-26T22:05:06.647Z,101397.13
2023-03-26T22:07:48.204Z,101400.50
2023-03-26T22:10:14.637Z,101407.34
2023-03-26T22:12:41.489Z,101406.38
2023-03-26T22:15:08.269Z,101423.47
2023-03-26T22:17:34.757Z,101414.72
2023-03-26T22:20:01.577Z,101424.25
2023-03-26T22:22:28.337Z,101427.59
2023-03-26T22:24:54.851Z,101426.63
2023-03-26T22:27:21.340Z,101430.97
2023-03-26T22:29:47.727Z,101438.72
2023-03-26T22:32:14.171Z,101434.41
2023-03-26T22:34:41.400Z,101430.28
2023-03-26T22:37:07.877Z,101447.63
2023-03-26T22:39:34.301Z,101441.78
2023-03-26T22:42:03.850Z,101444.47
2023-03-26T22:44:31.239Z,101452.31
2023-03-26T22:46:57.718Z,101461.94
2023-03-26T22:49:27.319Z,101465.47
2023-03-26T22:51:53.747Z,101469.03
2023-03-26T22:54:20.252Z,101465.81
2023-03-26T22:56:46.794Z,101471.06
2023-03-26T22:59:13.336Z,101476.31
2023-03-26T23:01:40.165Z,101481.56
2023-03-26T23:04:07.038Z,101484.22
2023-03-26T23:06:33.547Z,101481.69
2023-03-26T23:08:59.975Z,101491.19
2023-03-26T23:11:29.508Z,101497.13
2023-03-26T23:13:56.914Z,101499.53
2023-03-26T23:16:23.420Z,101505.50
2023-03-26T23:18:50.062Z,101511.50
2023-03-26T23:21:19.493Z,101511.56
2023-03-26T23:23:47.508Z,101512.47
2023-03-26T23:26:14.876Z,101524.63
2023-03-26T23:28:41.464Z,101519.44
2023-03-26T23:31:10.464Z,101522.88
2023-03-26T23:33:39.036Z,101531.50
2023-03-26T23:36:10.448Z,101531.44
2023-03-26T23:38:43.628Z,101534.00
2023-03-26T23:41:15.313Z,101540.94
2023-03-26T23:43:54.683Z,101547.06
2023-03-26T23:46:30.825Z,101553.13
2023-03-26T23:49:04.925Z,101562.63
2023-03-26T23:51:32.383Z,101559.19
2023-03-26T23:53:59.893Z,101573.06
2023-03-26T23:56:29.860Z,101569.63
2023-03-26T23:58:56.412Z,101568.72
